Time;durP1;ratioP1;P1;durP2;ratioP2;P2;SDS_P1;SDS_P2;PMS_P1;PMS_P2;Temp;Humidity;BMP_temperature;BMP_pressure;BME280_temperature;BME280_humidity;BME280_pressure;Samples;Min_cycle;Max_cycle;Signal;HPM_P1;HPM_P2
2023/09/26 00:00:27;;;;;;;10.00;7.10;;;;;;;13.47;99.53;98138.96;110116;1244;59672;-61
2023/09/26 00:03:18;;;;;;;9.70;7.20;;;;;;;13.41;100.00;98130.50;110086;1243;71300;-61
2023/09/26 00:05:49;;;;;;;13.30;9.20;;;;;;;13.37;98.98;98127.30;110150;1241;69797;-61
2023/09/26 00:08:20;;;;;;;11.30;9.30;;;;;;;13.34;100.00;98135.19;110128;1244;68680;-61
2023/09/26 00:10:51;;;;;;;12.30;8.70;;;;;;;13.31;100.00;98132.48;110134;1244;59708;-62
2023/09/26 00:13:23;;;;;;;10.90;8.20;;;;;;;13.29;98.13;98132.94;110124;1241;59751;-61
2023/09/26 00:15:55;;;;;;;10.70;7.50;;;;;;;13.29;99.50;98135.05;110062;1241;71411;-61
2023/09/26 00:18:27;;;;;;;11.10;8.50;;;;;;;13.27;98.23;98131.36;110162;1244;69223;-61
2023/09/26 00:20:59;;;;;;;9.10;7.10;;;;;;;13.27;97.11;98133.30;110125;1241;68527;-61
2023/09/26 00:23:30;;;;;;;9.00;7.00;;;;;;;13.26;99.29;98131.41;110116;1244;59696;-61
2023/09/26 00:26:01;;;;;;;8.70;7.60;;;;;;;13.23;99.19;98134.57;110149;1243;59671;-61
2023/09/26 00:28:32;;;;;;;8.60;7.50;;;;;;;13.21;99.66;98128.59;110125;1244;71401;-61
2023/09/26 00:31:06;;;;;;;8.30;7.00;;;;;;;13.15;100.00;98126.75;110110;1241;68617;-61
2023/09/26 00:33:39;;;;;;;8.50;6.90;;;;;;;13.13;99.61;98125.64;110092;1244;69258;-61
2023/09/26 00:36:12;;;;;;;7.50;6.70;;;;;;;13.12;100.00;98122.00;110115;1244;59764;-61
2023/09/26 00:38:48;;;;;;;7.30;6.30;;;;;;;13.09;99.80;98120.89;110135;1244;59697;-61
2023/09/26 00:41:20;;;;;;;6.90;5.80;;;;;;;13.05;99.89;98126.23;110133;1244;70466;-61
2023/09/26 00:43:55;;;;;;;9.40;7.80;;;;;;;13.01;100.00;98126.33;110126;1243;69269;-63
2023/09/26 00:46:30;;;;;;;9.20;7.30;;;;;;;12.95;100.00;98128.67;110167;1244;68417;-61
2023/09/26 00:49:06;;;;;;;14.30;11.80;;;;;;;12.90;100.00;98130.47;110147;1243;59651;-63
2023/09/26 00:51:39;;;;;;;11.50;9.70;;;;;;;12.85;100.00;98132.20;110146;1243;59704;-60
2023/09/26 00:54:12;;;;;;;13.60;11.20;;;;;;;12.83;100.00;98134.59;110129;1244;71354;-63
2023/09/26 00:56:51;;;;;;;14.40;12.10;;;;;;;12.82;100.00;98131.16;110117;1244;68369;-63
2023/09/26 00:59:25;;;;;;;11.80;10.60;;;;;;;12.81;100.00;98131.78;110136;1244;69404;-63
2023/09/26 01:02:04;;;;;;;14.00;11.30;;;;;;;12.81;100.00;98133.18;110168;1241;59669;-60
2023/09/26 01:04:41;;;;;;;11.60;9.70;;;;;;;12.78;100.00;98133.91;110178;1244;59669;-61
2023/09/26 01:07:19;;;;;;;11.40;9.10;;;;;;;12.78;100.00;98132.91;110157;1243;70601;-61
2023/09/26 01:09:55;;;;;;;15.50;12.10;;;;;;;12.75;100.00;98133.07;110173;1245;69153;-61
2023/09/26 01:12:29;;;;;;;14.70;12.80;;;;;;;12.74;100.00;98131.38;110145;1241;69299;-61
2023/09/26 01:15:02;;;;;;;13.90;11.00;;;;;;;12.73;100.00;98129.33;110163;1243;59685;-61
2023/09/26 01:17:36;;;;;;;14.00;10.40;;;;;;;12.72;100.00;98129.09;110153;1241;59698;-61
2023/09/26 01:20:15;;;;;;;13.80;10.70;;;;;;;12.69;100.00;98131.92;110155;1241;71416;-61
2023/09/26 01:22:49;;;;;;;11.70;9.70;;;;;;;12.67;100.00;98129.23;110133;1244;69361;-61
2023/09/26 01:25:21;;;;;;;14.70;12.30;;;;;;;12.65;100.00;98131.47;110167;1241;69085;-61
2023/09/26 01:27:53;;;;;;;11.80;10.50;;;;;;;12.62;100.00;98133.81;110151;1241;59696;-61
2023/09/26 01:30:24;;;;;;;13.00;10.70;;;;;;;12.57;100.00;98132.77;110150;1241;59716;-61
2023/09/26 01:32:54;;;;;;;13.60;11.60;;;;;;;12.54;100.00;98133.00;110188;1244;70658;-61
2023/09/26 01:35:25;;;;;;;12.00;10.70;;;;;;;12.50;100.00;98130.47;110141;1243;68310;-61
2023/09/26 01:37:56;;;;;;;12.10;9.20;;;;;;;12.46;100.00;98133.46;110131;1244;69655;-61
2023/09/26 01:40:27;;;;;;;12.50;10.50;;;;;;;12.43;100.00;98134.39;110110;1241;59685;-60
2023/09/26 01:42:59;;;;;;;13.80;10.10;;;;;;;12.39;100.00;98136.43;110148;1241;59680;-61
2023/09/26 01:45:32;;;;;;;13.00;10.60;;;;;;;12.34;100.00;98135.07;110175;1241;71956;-61
2023/09/26 01:48:09;;;;;;;13.90;10.30;;;;;;;12.30;100.00;98131.86;110157;1245;68434;-61
2023/09/26 01:50:40;;;;;;;12.80;10.80;;;;;;;12.24;100.00;98135.40;110192;1241;68481;-61
2023/09/26 01:53:13;;;;;;;14.10;12.60;;;;;;;12.19;100.00;98134.83;110103;1244;59817;-62
2023/09/26 01:55:46;;;;;;;12.40;10.30;;;;;;;12.16;100.00;98135.92;110185;1244;59672;-61
2023/09/26 01:58:17;;;;;;;14.30;12.70;;;;;;;12.14;100.00;98140.76;110128;1244;70805;-61
2023/09/26 02:00:49;;;;;;;20.40;15.70;;;;;;;12.13;100.00;98137.15;110130;1241;68720;-61
2023/09/26 02:03:21;;;;;;;15.10;12.80;;;;;;;12.11;100.00;98133.66;110110;1245;69628;-61
2023/09/26 02:05:56;;;;;;;15.10;12.20;;;;;;;12.07;100.00;98137.75;110100;1244;59713;-61
2023/09/26 02:08:27;;;;;;;15.40;12.30;;;;;;;12.03;100.00;98138.57;110152;1243;59695;-61
2023/09/26 02:10:59;;;;;;;17.20;13.20;;;;;;;11.99;100.00;98139.84;110141;1244;71779;-61
2023/09/26 02:13:32;;;;;;;14.00;12.00;;;;;;;11.97;100.00;98144.19;110116;1243;69285;-61
2023/09/26 02:16:11;;;;;;;18.40;12.40;;;;;;;11.95;100.00;98144.98;110077;1243;68503;-61
2023/09/26 02:18:44;;;;;;;14.70;11.20;;;;;;;11.94;100.00;98147.89;110111;1243;59666;-61
2023/09/26 02:21:17;;;;;;;13.20;10.90;;;;;;;11.93;100.00;98149.84;110090;1242;59734;-62
2023/09/26 02:23:48;;;;;;;17.60;13.80;;;;;;;11.92;100.00;98149.05;110107;1242;71460;-61
2023/09/26 02:26:19;;;;;;;16.60;13.60;;;;;;;11.91;100.00;98150.20;110127;1241;69819;-61
2023/09/26 02:28:50;;;;;;;13.70;11.20;;;;;;;11.88;100.00;98146.17;110141;1241;69125;-61
2023/09/26 02:31:20;;;;;;;12.60;11.30;;;;;;;11.86;100.00;98150.02;110104;1243;59745;-61
2023/09/26 02:33:50;;;;;;;13.80;11.50;;;;;;;11.84;100.00;98151.53;110149;1243;59753;-62
2023/09/26 02:36:22;;;;;;;15.90;13.30;;;;;;;11.81;100.00;98153.30;110120;1243;71401;-62
2023/09/26 02:38:55;;;;;;;13.90;10.60;;;;;;;11.75;100.00;98154.71;110125;1241;68463;-62
2023/09/26 02:41:25;;;;;;;13.40;10.60;;;;;;;11.71;100.00;98154.07;110101;1243;68532;-62
2023/09/26 02:43:59;;;;;;;14.30;10.00;;;;;;;11.68;100.00;98155.64;110107;1243;59714;-62
2023/09/26 02:46:30;;;;;;;12.40;10.10;;;;;;;11.65;100.00;98155.83;110097;1244;59658;-62
2023/09/26 02:49:03;;;;;;;12.30;10.00;;;;;;;11.60;100.00;98151.48;110092;1241;71397;-62
2023/09/26 02:51:33;;;;;;;12.50;9.70;;;;;;;11.47;100.00;98150.61;110071;1241;69838;-62
2023/09/26 02:54:06;;;;;;;12.80;10.90;;;;;;;11.36;100.00;98146.94;110080;1241;68792;-62
2023/09/26 02:56:37;;;;;;;11.10;9.60;;;;;;;11.28;100.00;98148.16;110127;1241;59741;-61
2023/09/26 02:59:08;;;;;;;11.70;9.40;;;;;;;11.21;100.00;98148.22;110141;1241;59752;-62
2023/09/26 03:01:37;;;;;;;11.00;8.80;;;;;;;11.16;100.00;98153.75;110104;1241;70563;-61
2023/09/26 03:04:07;;;;;;;15.20;12.90;;;;;;;11.11;100.00;98152.36;110121;1243;69042;-62
2023/09/26 03:06:37;;;;;;;13.30;10.90;;;;;;;11.09;100.00;98149.33;110141;1243;68882;-62
2023/09/26 03:09:08;;;;;;;12.60;10.80;;;;;;;11.12;100.00;98151.77;110231;1244;59712;-62
2023/09/26 03:11:38;;;;;;;12.60;10.30;;;;;;;11.13;100.00;98153.95;110105;1241;59683;-62
2023/09/26 03:14:10;;;;;;;11.30;10.10;;;;;;;11.13;100.00;98153.08;110282;1241;70654;-62
2023/09/26 03:16:42;;;;;;;14.30;9.70;;;;;;;11.12;100.00;98151.41;110152;1241;69274;-62
2023/09/26 03:19:16;;;;;;;11.60;9.30;;;;;;;11.10;100.00;98151.05;110106;1241;67572;-62
2023/09/26 03:21:50;;;;;;;10.90;9.20;;;;;;;11.09;100.00;98148.85;110141;1244;59728;-61
2023/09/26 03:24:21;;;;;;;9.70;8.40;;;;;;;11.07;100.00;98152.95;110137;1244;59664;-61
2023/09/26 03:26:51;;;;;;;11.50;9.30;;;;;;;11.07;100.00;98155.08;110118;1242;71360;-61
2023/09/26 03:29:22;;;;;;;13.20;10.90;;;;;;;11.06;100.00;98156.90;110083;1245;68284;-60
2023/09/26 03:31:52;;;;;;;13.90;11.10;;;;;;;11.05;100.00;98154.68;110119;1244;68746;-61
2023/09/26 03:34:22;;;;;;;14.80;11.80;;;;;;;11.08;100.00;98153.61;110089;1241;59758;-60
2023/09/26 03:36:54;;;;;;;14.90;12.40;;;;;;;11.09;100.00;98155.48;110101;1244;59689;-61
2023/09/26 03:39:24;;;;;;;14.90;12.50;;;;;;;11.10;100.00;98159.08;110083;1241;71148;-61
2023/09/26 03:41:54;;;;;;;14.30;12.10;;;;;;;11.10;100.00;98163.05;110054;1241;69249;-61
2023/09/26 03:44:24;;;;;;;;;;;;;;;11.10;100.00;98161.34;110052;1241;69512;-61
2023/09/26 03:46:54;;;;;;;16.80;13.10;;;;;;;11.11;100.00;98164.06;110081;1241;60172;-61
2023/09/26 03:49:25;;;;;;;14.00;11.30;;;;;;;11.13;100.00;98160.44;110100;1242;59658;-62
2023/09/26 03:51:56;;;;;;;21.70;15.80;;;;;;;11.14;100.00;98158.26;110099;1244;69663;-61
2023/09/26 03:54:27;;;;;;;21.60;16.30;;;;;;;11.16;100.00;98159.02;110064;1241;69079;-61
2023/09/26 03:56:57;;;;;;;23.40;17.30;;;;;;;11.19;100.00;98156.38;110062;1241;68420;-61
2023/09/26 03:59:26;;;;;;;;;;;;;;;11.21;100.00;98155.56;110091;1243;59743;-61
2023/09/26 04:01:56;;;;;;;17.30;14.00;;;;;;;11.18;100.00;98158.40;110126;1244;59656;-61
2023/09/26 04:04:27;;;;;;;14.60;11.80;;;;;;;11.10;100.00;98162.02;110113;1242;71538;-60
2023/09/26 04:06:56;;;;;;;13.20;11.20;;;;;;;11.04;100.00;98159.09;110142;1243;69560;-60
2023/09/26 04:09:26;;;;;;;;;;;;;;;10.99;100.00;98163.98;110096;1241;69511;-60
2023/09/26 04:11:55;;;;;;;13.10;10.30;;;;;;;10.93;100.00;98162.70;110102;1243;59678;-63
2023/09/26 04:14:26;;;;;;;16.00;13.80;;;;;;;10.92;100.00;98165.08;110118;1244;59653;-63
2023/09/26 04:16:56;;;;;;;18.40;14.50;;;;;;;10.92;100.00;98157.92;110074;1242;71331;-63
2023/09/26 04:19:25;;;;;;;;;;;;;;;10.93;100.00;98159.42;110085;1243;69826;-60
2023/09/26 04:21:55;;;;;;;18.70;13.70;;;;;;;10.96;100.00;98164.48;110100;1242;68283;-61
2023/09/26 04:24:27;;;;;;;20.70;16.00;;;;;;;10.97;100.00;98163.54;110102;1244;59750;-60
2023/09/26 04:26:56;;;;;;;21.50;16.10;;;;;;;10.99;100.00;98160.27;110052;1241;59664;-61
2023/09/26 04:29:27;;;;;;;20.00;14.90;;;;;;;11.01;100.00;98160.88;110053;1241;70641;-62
2023/09/26 04:31:58;;;;;;;16.00;14.00;;;;;;;11.04;100.00;98164.35;110073;1243;69500;-61
2023/09/26 04:34:29;;;;;;;16.70;13.10;;;;;;;11.05;100.00;98166.20;110070;1243;69865;-61
2023/09/26 04:36:58;;;;;;;19.70;16.70;;;;;;;11.05;100.00;98169.14;110089;1241;59691;-61
2023/09/26 04:39:28;;;;;;;16.60;13.80;;;;;;;11.07;100.00;98168.84;110065;1244;59748;-61
2023/09/26 04:41:57;;;;;;;14.80;12.70;;;;;;;11.08;100.00;98171.38;110063;1243;72326;-61
2023/09/26 04:44:27;;;;;;;16.90;13.50;;;;;;;11.10;100.00;98174.95;110092;1242;69185;-61
2023/09/26 04:46:57;;;;;;;19.40;15.80;;;;;;;11.14;100.00;98178.30;110045;1241;67575;-63
2023/09/26 04:49:27;;;;;;;15.80;13.10;;;;;;;11.22;100.00;98182.38;110050;1243;59675;-63
2023/09/26 04:51:56;;;;;;;16.50;13.00;;;;;;;11.33;100.00;98180.96;110113;1242;59707;-63
2023/09/26 04:54:26;;;;;;;17.50;14.10;;;;;;;11.46;100.00;98178.37;110084;1244;72100;-61
2023/09/26 04:56:55;;;;;;;16.70;13.80;;;;;;;11.61;100.00;98177.58;110070;1241;69741;-62
2023/09/26 04:59:27;;;;;;;14.30;11.80;;;;;;;11.80;100.00;98182.99;110046;1242;69280;-62
2023/09/26 05:01:56;;;;;;;13.30;11.10;;;;;;;11.97;100.00;98183.31;110058;1241;59751;-63
2023/09/26 05:04:26;;;;;;;13.90;12.10;;;;;;;12.16;100.00;98187.45;110095;1244;59648;-63
2023/09/26 05:06:55;;;;;;;13.10;11.50;;;;;;;12.34;100.00;98182.77;110081;1241;71284;-62
2023/09/26 05:09:24;;;;;;;16.20;12.60;;;;;;;12.50;100.00;98185.18;110070;1243;69294;-62
2023/09/26 05:11:54;;;;;;;15.40;13.00;;;;;;;12.66;100.00;98188.95;110078;1241;69266;-63
2023/09/26 05:14:23;;;;;;;15.10;12.70;;;;;;;12.83;100.00;98190.27;110079;1244;59755;-60
2023/09/26 05:16:52;;;;;;;17.20;13.80;;;;;;;13.02;100.00;98190.80;110096;1244;59767;-62
2023/09/26 05:19:22;;;;;;;15.30;12.10;;;;;;;13.17;100.00;98190.46;110095;1243;71330;-61
2023/09/26 05:21:52;;;;;;;20.20;14.40;;;;;;;13.37;100.00;98199.03;110065;1241;69842;-63
2023/09/26 05:24:22;;;;;;;25.00;18.10;;;;;;;13.66;100.00;98195.75;110087;1244;69080;-61
2023/09/26 05:26:52;;;;;;;40.40;24.30;;;;;;;13.93;100.00;98200.75;110067;1241;59773;-61
2023/09/26 05:29:21;;;;;;;;;;;;;;;14.21;100.00;98209.02;110087;1242;59765;-60
2023/09/26 05:31:51;;;;;;;30.40;20.10;;;;;;;14.44;100.00;98210.43;110096;1243;70743;-60
2023/09/26 05:34:21;;;;;;;;;;;;;;;14.69;100.00;98208.84;110082;1243;69131;-63
2023/09/26 05:36:50;;;;;;;29.40;18.20;;;;;;;14.92;100.00;98210.83;109754;1247;68418;-61
2023/09/26 05:39:20;;;;;;;24.50;16.50;;;;;;;15.16;100.00;98203.63;110075;1244;60295;-61
2023/09/26 05:41:50;;;;;;;27.40;18.10;;;;;;;15.47;100.00;98204.00;110049;1243;59782;-60
2023/09/26 05:44:19;;;;;;;24.30;17.30;;;;;;;15.78;100.00;98202.75;110075;1244;71452;-61
2023/09/26 05:46:48;;;;;;;29.60;19.50;;;;;;;16.05;99.24;98203.54;110085;1244;69195;-61
2023/09/26 05:49:19;;;;;;;35.40;22.00;;;;;;;16.30;100.00;98200.56;110126;1244;68568;-62
2023/09/26 05:51:49;;;;;;;27.00;19.90;;;;;;;16.58;100.00;98202.10;110112;1244;59672;-61
2023/09/26 05:54:18;;;;;;;33.70;21.40;;;;;;;16.84;99.01;98205.73;110137;1244;59670;-61
2023/09/26 05:57:03;;;;;;;31.20;21.10;;;;;;;17.07;93.88;98199.80;110122;1243;71260;-62
2023/09/26 05:59:32;;;;;;;29.90;21.20;;;;;;;17.29;93.58;98204.40;110150;1243;68475;-61
2023/09/26 06:02:02;;;;;;;28.60;19.60;;;;;;;17.59;96.99;98204.04;110142;1244;69310;-61
2023/09/26 06:04:31;;;;;;;;;;;;;;;17.80;90.33;98199.78;110136;1243;59699;-60
2023/09/26 06:07:01;;;;;;;37.20;26.00;;;;;;;17.90;86.97;98199.02;110139;1244;59652;-61
2023/09/26 06:09:31;;;;;;;35.00;24.00;;;;;;;17.99;85.40;98204.33;110130;1244;70676;-61
2023/09/26 06:12:00;;;;;;;;;;;;;;;18.21;88.68;98209.54;110132;1244;69506;-61
2023/09/26 06:14:34;;;;;;;32.00;22.00;;;;;;;18.56;90.00;98212.94;110112;1244;69623;-63
2023/09/26 06:17:03;;;;;;;22.70;17.90;;;;;;;18.87;88.12;98214.24;110085;1241;59710;-63
2023/09/26 06:19:34;;;;;;;20.80;14.90;;;;;;;19.15;85.42;98212.13;110109;1242;59744;-62
2023/09/26 06:22:04;;;;;;;16.90;13.90;;;;;;;19.43;85.48;98203.46;110138;1244;70460;-60
2023/09/26 06:24:33;;;;;;;;;;;;;;;19.62;80.95;98201.27;110104;1241;69209;-61
2023/09/26 06:27:04;;;;;;;15.20;12.40;;;;;;;19.80;78.64;98197.23;110029;1242;69173;-60
2023/09/26 06:29:37;;;;;;;14.20;12.50;;;;;;;19.94;78.46;98199.36;110127;1243;59738;-60
2023/09/26 06:32:07;;;;;;;13.00;11.20;;;;;;;20.29;80.27;98201.92;110104;1241;59735;-61
2023/09/26 06:34:39;;;;;;;13.50;10.60;;;;;;;20.46;75.98;98197.91;110137;1243;71960;-61
2023/09/26 06:37:08;;;;;;;13.80;10.10;;;;;;;20.83;78.59;98199.78;110084;1241;68235;-61
2023/09/26 06:39:38;;;;;;;9.60;8.60;;;;;;;21.22;78.44;98202.67;110099;1244;68130;-61
2023/09/26 06:42:07;;;;;;;12.30;9.60;;;;;;;21.46;74.81;98194.73;110132;1244;59812;-62
2023/09/26 06:44:37;;;;;;;10.70;9.10;;;;;;;21.59;69.51;98197.55;110141;1245;59684;-61
2023/09/26 06:47:06;;;;;;;10.00;9.00;;;;;;;21.71;67.74;98195.45;110097;1244;71390;-62
2023/09/26 06:49:36;;;;;;;9.50;8.50;;;;;;;22.07;70.05;98195.85;110089;1242;69102;-61
2023/09/26 06:52:06;;;;;;;14.70;11.30;;;;;;;22.37;70.20;98202.27;110067;1242;69276;-62
2023/09/26 06:54:36;;;;;;;12.00;10.80;;;;;;;22.87;72.40;98199.21;110042;1241;59752;-61
2023/09/26 06:57:05;;;;;;;13.60;11.30;;;;;;;23.20;66.52;98195.33;110164;1244;59703;-60
2023/09/26 06:59:35;;;;;;;11.60;10.40;;;;;;;23.63;69.66;98194.72;110092;1243;72330;-62
2023/09/26 07:02:04;;;;;;;12.60;11.30;;;;;;;23.82;64.43;98195.25;110149;1241;69349;-62
2023/09/26 07:04:34;;;;;;;10.80;9.70;;;;;;;24.06;65.97;98194.41;110148;1244;69111;-62
2023/09/26 07:07:03;;;;;;;;;;;;;;;24.36;64.84;98196.23;110179;1244;59750;-61
2023/09/26 07:09:33;;;;;;;8.90;7.90;;;;;;;24.49;61.85;98195.48;110086;1241;59746;-60
2023/09/26 07:12:03;;;;;;;;;;;;;;;24.70;59.74;98193.67;110104;1244;72144;-61
2023/09/26 07:14:33;;;;;;;8.20;7.40;;;;;;;24.91;60.75;98190.09;110119;1243;67678;-61
2023/09/26 07:17:03;;;;;;;7.80;7.00;;;;;;;25.27;56.99;98193.85;110145;1241;69369;-62
2023/09/26 07:19:33;;;;;;;9.60;7.80;;;;;;;25.43;53.54;98188.66;110145;1244;59695;-62
2023/09/26 07:22:02;;;;;;;12.20;7.70;;;;;;;25.80;53.39;98189.30;110128;1244;59705;-61
2023/09/26 07:24:32;;;;;;;9.50;7.50;;;;;;;26.17;54.22;98190.80;110105;1242;70952;-63
2023/09/26 07:27:17;;;;;;;7.90;6.60;;;;;;;26.54;51.62;98194.41;110098;1243;69261;-62
2023/09/26 07:29:47;;;;;;;9.00;5.90;;;;;;;26.86;49.12;98194.60;110116;1243;68768;-62
2023/09/26 07:32:17;;;;;;;6.50;5.30;;;;;;;27.14;47.61;98194.05;110154;1244;59755;-62
2023/09/26 07:34:47;;;;;;;6.30;5.20;;;;;;;27.34;45.09;98189.41;110139;1244;59687;-62
2023/09/26 07:37:16;;;;;;;;;;;;;;;27.50;43.19;98188.25;110150;1243;72083;-63
2023/09/26 07:39:49;;;;;;;8.10;5.10;;;;;;;27.77;43.02;98185.17;110187;1243;69142;-62
2023/09/26 07:42:19;;;;;;;5.70;5.20;;;;;;;28.33;43.69;98184.76;110164;1244;69860;-63
2023/09/26 07:44:49;;;;;;;5.80;4.40;;;;;;;28.39;40.31;98183.35;110157;1243;59705;-60
2023/09/26 07:47:19;;;;;;;6.60;5.40;;;;;;;28.45;39.76;98183.52;110157;1244;59672;-62
2023/09/26 07:49:48;;;;;;;5.80;4.60;;;;;;;28.93;41.32;98185.44;110169;1244;72321;-63
2023/09/26 07:52:17;;;;;;;5.90;5.30;;;;;;;29.29;39.42;98184.33;110111;1244;69819;-62
2023/09/26 07:54:47;;;;;;;6.70;5.30;;;;;;;29.75;38.30;98183.12;110102;1244;69903;-61
2023/09/26 07:57:16;;;;;;;6.90;5.30;;;;;;;29.77;37.57;98179.16;110092;1244;59750;-61
2023/09/26 07:59:47;;;;;;;6.40;5.00;;;;;;;29.83;38.24;98176.06;110038;1243;59695;-61
2023/09/26 08:02:17;;;;;;;5.70;5.00;;;;;;;30.00;37.25;98175.48;110046;1243;71429;-61
2023/09/26 08:04:47;;;;;;;6.40;4.90;;;;;;;30.23;36.82;98172.16;110118;1242;68553;-61
2023/09/26 08:07:16;;;;;;;6.50;4.40;;;;;;;30.62;34.38;98171.83;110130;1244;69692;-61
2023/09/26 08:09:46;;;;;;;5.40;4.40;;;;;;;31.06;33.79;98171.20;110151;1244;59770;-62
2023/09/26 08:12:17;;;;;;;7.00;4.40;;;;;;;31.35;32.44;98171.34;110057;1241;59815;-64
2023/09/26 08:14:46;;;;;;;6.70;5.00;;;;;;;31.28;31.69;98166.66;110102;1244;72162;-62
2023/09/26 08:17:17;;;;;;;5.40;4.50;;;;;;;31.30;32.15;98168.95;110098;1241;69371;-62
2023/09/26 08:19:46;;;;;;;4.70;4.10;;;;;;;31.73;31.49;98163.31;110117;1244;68346;-61
2023/09/26 08:22:16;;;;;;;7.50;5.30;;;;;;;32.08;32.40;98159.94;110144;1244;59744;-61
2023/09/26 08:24:45;;;;;;;5.50;4.80;;;;;;;32.14;31.87;98160.73;110154;1241;59760;-61
2023/09/26 08:27:16;;;;;;;5.10;4.30;;;;;;;32.58;30.85;98158.32;110113;1242;71965;-61
2023/09/26 08:29:45;;;;;;;7.10;4.40;;;;;;;32.52;29.63;98159.33;110170;1244;69928;-63
2023/09/26 08:32:14;;;;;;;6.00;4.60;;;;;;;32.72;30.20;98158.32;110135;1243;70038;-63
2023/09/26 08:34:44;;;;;;;4.30;3.90;;;;;;;32.74;28.87;98156.59;110080;1243;59746;-61
2023/09/26 08:37:14;;;;;;;5.00;4.00;;;;;;;33.10;30.10;98154.09;110121;1243;59695;-61
2023/09/26 08:39:44;;;;;;;5.90;4.90;;;;;;;33.37;29.65;98150.63;110112;1243;71948;-61
2023/09/26 08:42:17;;;;;;;5.00;4.20;;;;;;;33.85;28.46;98152.13;110102;1244;69834;-61
2023/09/26 08:44:46;;;;;;;5.10;4.40;;;;;;;33.65;28.51;98149.16;110099;1242;68404;-61
2023/09/26 08:47:15;;;;;;;7.50;4.60;;;;;;;33.07;28.07;98149.04;110055;1244;59782;-62
2023/09/26 08:49:46;;;;;;;5.20;4.40;;;;;;;33.63;29.25;98144.19;110088;1243;59638;-60
2023/09/26 08:52:17;;;;;;;6.40;4.30;;;;;;;34.39;29.08;98144.30;110079;1242;71171;-62
2023/09/26 08:54:47;;;;;;;6.10;4.30;;;;;;;34.65;26.65;98142.00;110113;1244;68248;-62
2023/09/26 08:57:21;;;;;;;5.10;4.60;;;;;;;34.38;27.73;98140.60;110055;1242;70364;-62
2023/09/26 08:59:53;;;;;;;6.20;4.40;;;;;;;34.50;29.27;98140.98;110049;1244;59741;-60
2023/09/26 09:02:23;;;;;;;6.30;4.80;;;;;;;35.18;28.57;98141.11;110145;1244;59682;-61
2023/09/26 09:04:52;;;;;;;5.90;4.70;;;;;;;34.91;27.21;98143.30;110107;1243;70457;-61
2023/09/26 09:07:23;;;;;;;5.70;4.40;;;;;;;35.21;27.72;98135.41;109644;1244;594585;-61
2023/09/26 09:10:13;;;;;;;5.10;4.30;;;;;;;35.60;27.80;98138.27;110110;1243;69266;-60
2023/09/26 09:12:47;;;;;;;4.40;3.90;;;;;;;35.32;27.05;98132.23;110067;1244;59684;-61
2023/09/26 09:15:17;;;;;;;5.10;4.30;;;;;;;35.61;26.88;98130.82;110095;1244;59692;-61
2023/09/26 09:17:47;;;;;;;6.70;4.30;;;;;;;35.93;26.45;98125.88;110092;1244;71367;-61
2023/09/26 09:20:30;;;;;;;4.50;3.50;;;;;;;35.65;26.30;98127.39;110091;1241;69136;-62
2023/09/26 09:23:03;;;;;;;4.40;3.80;;;;;;;35.76;26.98;98127.77;110064;1243;69102;-63
2023/09/26 09:25:35;;;;;;;4.10;3.70;;;;;;;36.16;26.55;98124.84;110091;1243;59756;-62
2023/09/26 09:28:07;;;;;;;4.90;3.50;;;;;;;36.33;26.21;98118.02;110168;1243;59741;-61
2023/09/26 09:30:42;;;;;;;6.20;3.70;;;;;;;36.31;24.83;98120.63;110108;1243;71341;-62
2023/09/26 09:33:13;;;;;;;4.10;3.70;;;;;;;36.20;22.80;98118.77;110114;1244;69199;-61
2023/09/26 09:35:43;;;;;;;6.50;3.70;;;;;;;36.03;23.26;98118.31;110122;1244;68543;-62
2023/09/26 09:38:13;;;;;;;5.00;3.70;;;;;;;36.29;23.89;98113.80;110165;1244;59715;-62
2023/09/26 09:40:42;;;;;;;3.80;3.30;;;;;;;35.90;23.38;98107.98;110219;1243;60065;-60
2023/09/26 09:43:12;;;;;;;6.90;4.20;;;;;;;36.39;22.80;98105.67;110168;1241;70919;-62
2023/09/26 09:45:43;;;;;;;4.50;3.20;;;;;;;36.39;22.32;98104.73;110196;1243;69238;-60
2023/09/26 09:48:13;;;;;;;5.00;3.20;;;;;;;36.32;21.39;98099.57;110188;1243;70357;-60
2023/09/26 09:50:49;;;;;;;5.00;3.30;;;;;;;36.27;21.04;98095.77;110137;1243;59759;-63
2023/09/26 09:53:22;;;;;;;4.20;3.20;;;;;;;36.19;20.98;98090.64;110084;1243;59788;-62
2023/09/26 09:55:52;;;;;;;8.00;3.60;;;;;;;35.97;20.94;98095.78;110118;1243;71797;-62
2023/09/26 09:58:28;;;;;;;5.20;3.10;;;;;;;35.84;20.52;98093.27;110137;1243;69888;-62
2023/09/26 10:00:59;;;;;;;4.70;3.10;;;;;;;35.88;20.84;98092.23;110066;1243;69958;-62
2023/09/26 10:03:30;;;;;;;4.50;3.00;;;;;;;35.84;20.91;98093.16;110152;1243;59703;-61
2023/09/26 10:06:00;;;;;;;4.00;2.90;;;;;;;35.82;22.22;98095.38;110133;1245;59739;-60
2023/09/26 10:08:31;;;;;;;5.00;3.10;;;;;;;36.17;21.00;98091.55;110122;1244;72325;-61
2023/09/26 10:11:01;;;;;;;3.80;3.00;;;;;;;36.23;20.71;98088.39;110098;1244;69897;-60
2023/09/26 10:13:34;;;;;;;3.90;3.20;;;;;;;36.57;20.54;98083.21;110116;1241;68882;-61
2023/09/26 10:16:18;;;;;;;4.40;3.10;;;;;;;36.01;20.93;98082.49;110138;1241;59753;-61
2023/09/26 10:18:49;;;;;;;4.50;3.10;;;;;;;35.93;21.43;98081.65;110140;1241;59675;-61
2023/09/26 10:21:27;;;;;;;5.30;3.10;;;;;;;36.40;20.34;98077.26;110141;1243;71252;-61
2023/09/26 10:24:05;;;;;;;4.10;3.00;;;;;;;36.39;20.66;98078.13;110121;1244;69214;-62
2023/09/26 10:26:43;;;;;;;4.40;3.00;;;;;;;36.24;21.06;98072.66;110122;1241;69341;-61
2023/09/26 10:29:22;;;;;;;3.00;2.70;;;;;;;36.76;20.24;98070.69;110148;1241;59751;-61
2023/09/26 10:31:58;;;;;;;5.80;3.10;;;;;;;36.85;20.00;98066.38;110121;1244;59701;-61
2023/09/26 10:34:29;;;;;;;4.20;3.50;;;;;;;36.79;20.43;98063.39;110136;1244;71414;-60
2023/09/26 10:37:20;;;;;;;3.00;2.40;;;;;;;37.04;20.06;98061.34;110116;1244;70355;-61
2023/09/26 10:39:50;;;;;;;3.90;3.20;;;;;;;37.23;20.16;98060.26;110067;1243;69331;-61
2023/09/26 10:42:25;;;;;;;3.50;3.00;;;;;;;37.74;19.32;98055.31;110113;1244;60153;-61
2023/09/26 10:45:15;;;;;;;4.30;2.70;;;;;;;37.47;18.90;98053.50;110110;1244;59689;-61
2023/09/26 10:47:44;;;;;;;4.90;3.10;;;;;;;37.23;19.37;98054.21;110107;1243;72009;-61
2023/09/26 10:50:36;;;;;;;4.30;3.00;;;;;;;37.43;19.29;98049.04;110117;1244;69463;-62
2023/09/26 10:53:07;;;;;;;3.80;2.70;;;;;;;37.25;19.00;98050.83;110122;1244;69147;-62
2023/09/26 10:55:37;;;;;;;6.80;3.30;;;;;;;36.65;19.24;98051.98;110129;1244;59752;-61
2023/09/26 10:58:07;;;;;;;4.40;2.90;;;;;;;36.43;19.15;98047.66;110130;1241;59758;-60
2023/09/26 11:00:36;;;;;;;9.30;3.20;;;;;;;36.22;19.02;98044.40;110119;1244;72156;-60
2023/09/26 11:03:05;;;;;;;3.90;3.10;;;;;;;36.05;19.22;98038.63;110130;1244;69712;-61
2023/09/26 11:05:35;;;;;;;5.30;2.90;;;;;;;36.12;19.08;98035.48;110172;1241;69987;-61
2023/09/26 11:08:05;;;;;;;4.50;3.10;;;;;;;36.04;19.34;98040.42;110142;1249;59895;-61
2023/09/26 11:10:46;;;;;;;3.80;3.00;;;;;;;35.96;19.30;98039.03;110115;1244;59685;-61
2023/09/26 11:13:16;;;;;;;4.30;3.20;;;;;;;35.93;19.02;98037.88;110144;1244;71650;-61
2023/09/26 11:15:46;;;;;;;7.70;3.30;;;;;;;35.82;19.32;98029.72;110143;1244;69436;-61
2023/09/26 11:18:14;;;;;;;5.10;3.40;;;;;;;35.87;19.46;98029.98;110126;1241;69873;-62
2023/09/26 11:20:44;;;;;;;4.90;2.80;;;;;;;35.54;19.69;98033.64;110066;1244;59700;-62
2023/09/26 11:23:39;;;;;;;5.30;2.70;;;;;;;35.56;20.21;98031.66;110135;1245;59688;-60
2023/09/26 11:26:09;;;;;;;3.90;2.70;;;;;;;36.02;19.59;98029.56;110083;1241;71549;-60
2023/09/26 11:28:39;;;;;;;3.40;2.70;;;;;;;36.11;19.69;98030.89;110122;1243;69257;-61
2023/09/26 11:31:09;;;;;;;4.00;3.00;;;;;;;36.27;19.13;98024.64;110075;1244;69137;-61
2023/09/26 11:33:38;;;;;;;7.80;3.40;;;;;;;36.09;19.13;98028.16;110114;1244;59670;-61
2023/09/26 11:36:10;;;;;;;5.50;2.70;;;;;;;35.81;19.40;98025.96;110112;1243;59641;-61